^^
MeteoGriva-Weather Station Historical Data
Daily Summary for August 18, 2020 Units:  English    Metric   Both
Daily Weekly Monthly Yearly Custom
  High: Low: Average:
Temperature: 42.1 °F 34.5 °F 37.9 °F
Dew Point: 41.2 °F 34.3 °F 37.4 °F
Humidity: 99% 92% 98%
Wind Speed: 6.3mph 0mph 0.9mph
Wind Gust: 17.4mph - -
Wind- - South
Pressure: 30.4 in 30.2 in -
Precipitation: 0 in    
Historical Graphs
 
 
Tabular Data for August 18, 2020
Time Temperature Dew Point Pressure Wind Wind Speed Wind Gust Humidity Rainfall Rate (Hourly) solar
00:04 35.1 °F 34.9 °F 30.4 in Calm     99% 0 in 0 W/m2
00:09 35.1 °F 34.9 °F 30.4 in Calm     99% 0 in 0 W/m2
00:14 35.1 °F 34.9 °F 30.4 in Calm     99% 0 in 0 W/m2
00:19 34.9 °F 34.7 °F 30.4 in Calm     99% 0 in 0 W/m2
00:24 34.9 °F 34.7 °F 30.4 in Calm     99% 0 in 0 W/m2
00:29 34.9 °F 34.7 °F 30.4 in Calm     99% 0 in 0 W/m2
00:34 34.9 °F 34.7 °F 30.4 in Calm     99% 0 in 0 W/m2
00:39 34.9 °F 34.7 °F 30.4 in Calm     99% 0 in 0 W/m2
00:44 35.1 °F 35.1 °F 30.4 in Calm     99% 0 in 0 W/m2
00:49 35.2 °F 35.1 °F 30.4 in Calm     99% 0 in 0 W/m2
00:54 35.2 °F 35.1 °F 30.4 in Calm     99% 0 in 0 W/m2
00:59 35.1 °F 35.1 °F 30.4 in Calm     99% 0 in 0 W/m2
01:04 34.9 °F 34.7 °F 30.4 in Calm     99% 0 in 0 W/m2
01:09 34.7 °F 34.5 °F 30.4 in Calm     99% 0 in 0 W/m2
01:14 34.7 °F 34.5 °F 30.4 in Calm     99% 0 in 0 W/m2
01:19 34.9 °F 34.7 °F 30.3 in Calm     99% 0 in 0 W/m2
01:24 35.2 °F 35.1 °F 30.3 in Calm     99% 0 in 0 W/m2
01:29 35.4 °F 35.2 °F 30.4 in Calm     99% 0 in 0 W/m2
01:34 35.4 °F 35.2 °F 30.4 in Calm     99% 0 in 0 W/m2
01:39 35.4 °F 35.2 °F 30.3 in Calm     99% 0 in 0 W/m2
01:44 35.4 °F 35.2 °F 30.3 in Calm     99% 0 in 0 W/m2
01:49 35.4 °F 35.2 °F 30.4 in Calm     99% 0 in 0 W/m2
01:54 35.4 °F 35.2 °F 30.3 in Calm     99% 0 in 0 W/m2
01:59 35.4 °F 35.2 °F 30.3 in Calm     99% 0 in 0 W/m2
02:04 35.2 °F 35.1 °F 30.3 in Calm     99% 0 in 0 W/m2
02:09 35.1 °F 34.9 °F 30.3 in Calm     99% 0 in 0 W/m2
02:14 35.1 °F 34.9 °F 30.4 in Calm     99% 0 in 0 W/m2
02:19 35.1 °F 34.9 °F 30.3 in Calm     99% 0 in 0 W/m2
02:24 35.4 °F 35.2 °F 30.3 in Calm     99% 0 in 0 W/m2
02:29 35.6 °F 35.4 °F 30.3 in Calm     99% 0 in 0 W/m2
02:34 35.6 °F 35.4 °F 30.3 in Calm     99% 0 in 0 W/m2
02:39 35.6 °F 35.4 °F 30.3 in Calm     99% 0 in 0 W/m2
02:44 35.4 °F 35.2 °F 30.4 in Calm     99% 0 in 0 W/m2
02:49 35.2 °F 35.1 °F 30.4 in Calm     99% 0 in 0 W/m2
02:54 35.2 °F 35.1 °F 30.4 in Calm     99% 0 in 0 W/m2
02:59 35.2 °F 35.1 °F 30.4 in Calm     99% 0 in 0 W/m2
03:04 35.1 °F 34.9 °F 30.4 in Calm     99% 0 in 0 W/m2
03:09 34.9 °F 34.7 °F 30.4 in Calm     99% 0 in 0 W/m2
03:14 34.9 °F 34.7 °F 30.4 in Calm     99% 0 in 0 W/m2
03:19 34.7 °F 34.5 °F 30.4 in Calm     99% 0 in 0 W/m2
03:24 34.7 °F 34.3 °F 30.4 in Calm     99% 0 in 0 W/m2
03:29 34.5 °F 34.3 °F 30.3 in Calm     99% 0 in 0 W/m2
03:34 34.5 °F 34.3 °F 30.4 in Calm     99% 0 in 0 W/m2
03:39 34.5 °F 34.3 °F 30.3 in Calm     99% 0 in 0 W/m2
03:44 34.7 °F 34.5 °F 30.4 in Calm     99% 0 in 0 W/m2
03:49 35.1 °F 34.9 °F 30.3 in Calm     99% 0 in 0 W/m2
03:54 35.1 °F 34.9 °F 30.3 in Calm     99% 0 in 0 W/m2
03:59 35.1 °F 34.9 °F 30.3 in Calm     99% 0 in 0 W/m2
04:04 35.4 °F 35.2 °F 30.3 in Calm     99% 0 in 0 W/m2
04:09 35.6 °F 35.4 °F 30.3 in Calm     99% 0 in 0 W/m2
04:14 35.6 °F 35.4 °F 30.3 in Calm     99% 0 in 0 W/m2
04:19 35.8 °F 35.6 °F 30.3 in Calm     99% 0 in 0 W/m2
04:24 35.8 °F 35.6 °F 30.3 in Calm     99% 0 in 0 W/m2
04:29 36 °F 35.8 °F 30.3 in Calm     99% 0 in 0 W/m2
04:34 36 °F 35.8 °F 30.3 in Calm     99% 0 in 0 W/m2
04:39 36 °F 35.8 °F 30.3 in Calm     99% 0 in 0 W/m2
04:44 36.1 °F 35.8 °F 30.3 in Calm     99% 0 in 0 W/m2
04:49 36.3 °F 36.1 °F 30.3 in Calm     99% 0 in 0 W/m2
04:54 36.3 °F 36.1 °F 30.3 in Calm     99% 0 in 0 W/m2
04:59 36.3 °F 36.1 °F 30.3 in Calm     99% 0 in 0 W/m2
05:04 36.3 °F 36.1 °F 30.3 in Calm     99% 0 in 0 W/m2
05:09 36.3 °F 36.1 °F 30.3 in Calm     99% 0 in 0 W/m2
05:14 36.3 °F 36.1 °F 30.3 in Calm     99% 0 in 0 W/m2
05:19 36.3 °F 36.1 °F 30.3 in Calm     99% 0 in 0 W/m2
05:24 36.3 °F 36.1 °F 30.3 in Calm     99% 0 in 0 W/m2
05:29 36.5 °F 36.3 °F 30.3 in Calm     99% 0 in 0 W/m2
05:34 36.5 °F 36.3 °F 30.3 in Calm     99% 0 in 0 W/m2
05:39 36.5 °F 36.3 °F 30.3 in Calm     99% 0 in 0 W/m2
05:44 36.7 °F 36.5 °F 30.3 in Calm     99% 0 in 0 W/m2
05:49 36.9 °F 36.7 °F 30.3 in Calm     99% 0 in 0 W/m2
05:54 36.9 °F 36.7 °F 30.3 in Calm     99% 0 in 0 W/m2
05:59 37 °F 36.9 °F 30.3 in Calm     99% 0 in 0 W/m2
06:04 37 °F 36.9 °F 30.3 in Calm     99% 0 in 0 W/m2
06:09 37 °F 36.9 °F 30.3 in Calm     99% 0 in 0 W/m2
06:14 37 °F 36.9 °F 30.3 in Calm     99% 0 in 0 W/m2
06:19 37 °F 36.9 °F 30.3 in Calm     99% 0 in 0 W/m2
06:24 37 °F 37 °F 30.3 in Calm     99% 0 in 0 W/m2
06:29 36.9 °F 36.7 °F 30.3 in Calm     99% 0 in 0 W/m2
06:34 36.9 °F 36.7 °F 30.3 in Calm     99% 0 in 0 W/m2
06:39 36.9 °F 36.7 °F 30.3 in Calm     99% 0 in 0 W/m2
06:44 36.7 °F 36.5 °F 30.3 in Calm     99% 0 in 0 W/m2
06:49 36.5 °F 36.3 °F 30.3 in Calm     99% 0 in 0 W/m2
06:54 36.5 °F 36.3 °F 30.3 in Calm     99% 0 in 0 W/m2
06:59 36.5 °F 36.3 °F 30.3 in Calm     99% 0 in 0 W/m2
07:04 36.5 °F 36.3 °F 30.3 in Calm     99% 0 in 0 W/m2
07:09 36.5 °F 36.3 °F 30.3 in Calm     99% 0 in 0 W/m2
07:14 36.5 °F 36.3 °F 30.3 in Calm     99% 0 in 0 W/m2
07:19 36.5 °F 36.3 °F 30.3 in Calm     99% 0 in 0 W/m2
07:24 36.5 °F 36.3 °F 30.3 in Calm     99% 0 in 0 W/m2
07:29 36.5 °F 36.3 °F 30.3 in Calm     99% 0 in 0 W/m2
07:34 36.5 °F 36.3 °F 30.3 in Calm     99% 0 in 0 W/m2
07:39 36.5 °F 36.3 °F 30.3 in Calm     99% 0 in 0 W/m2
07:44 36.5 °F 36.3 °F 30.3 in Calm     99% 0 in 0 W/m2
07:49 36.3 °F 36.1 °F 30.3 in Calm     99% 0 in 0 W/m2
07:54 36.3 °F 36.1 °F 30.3 in Calm     99% 0 in 0 W/m2
07:59 36.3 °F 36.1 °F 30.3 in Calm     99% 0 in 0 W/m2
08:04 36.5 °F 36.3 °F 30.3 in Calm     99% 0 in 0 W/m2
08:09 36.5 °F 36.3 °F 30.3 in Calm     99% 0 in 0 W/m2
08:14 36.5 °F 36.3 °F 30.3 in Calm     99% 0 in 2 W/m2
08:19 36.7 °F 36.5 °F 30.3 in Calm     99% 0 in 3 W/m2
08:24 36.7 °F 36.5 °F 30.3 in Calm     99% 0 in 4 W/m2
08:29 36.7 °F 36.5 °F 30.3 in Calm     99% 0 in 6 W/m2
08:34 36.7 °F 36.5 °F 30.3 in Calm     99% 0 in 8 W/m2
08:39 36.7 °F 36.5 °F 30.3 in Calm     99% 0 in 9 W/m2
08:44 36.9 °F 36.7 °F 30.3 in Calm     99% 0 in 11 W/m2
08:49 37 °F 36.9 °F 30.3 in Calm     99% 0 in 12 W/m2
08:54 37 °F 36.9 °F 30.3 in Calm     99% 0 in 12 W/m2
08:59 37 °F 36.9 °F 30.3 in Calm     99% 0 in 14 W/m2
09:04 37 °F 36.9 °F 30.3 in Calm     99% 0 in 19 W/m2
09:09 37 °F 36.9 °F 30.3 in Calm     99% 0 in 20 W/m2
09:14 37 °F 36.9 °F 30.3 in Calm     99% 0 in 21 W/m2
09:19 37 °F 36.9 °F 30.3 in Calm     99% 0 in 21 W/m2
09:24 37 °F 36.9 °F 30.3 in Calm     99% 0 in 21 W/m2
09:29 37.2 °F 37 °F 30.3 in Calm     99% 0 in 25 W/m2
09:34 37.2 °F 37 °F 30.3 in Calm     99% 0 in 28 W/m2
09:39 37.2 °F 37 °F 30.3 in Calm     99% 0 in 34 W/m2
09:44 37.2 °F 37 °F 30.3 in Calm     99% 0 in 36 W/m2
09:49 37.2 °F 37 °F 30.3 in Calm     99% 0 in 38 W/m2
09:54 37.2 °F 37 °F 30.3 in Calm     99% 0 in 40 W/m2
09:59 37.2 °F 37 °F 30.3 in Calm     99% 0 in 41 W/m2
10:04 37.2 °F 37 °F 30.3 in Calm     99% 0 in 41 W/m2
10:09 37.6 °F 37.4 °F 30.3 in Calm     99% 0 in 44 W/m2
10:14 37.6 °F 37.4 °F 30.3 in Calm     99% 0 in 45 W/m2
10:19 37.6 °F 37.4 °F 30.3 in Calm     99% 0 in 46 W/m2
10:24 37.6 °F 37.4 °F 30.3 in Calm     99% 0 in 47 W/m2
10:29 37.6 °F 37.4 °F 30.3 in Calm     99% 0 in 49 W/m2
10:34 37.4 °F 37.2 °F 30.3 in Calm     99% 0 in 54 W/m2
10:39 37.6 °F 37.4 °F 30.3 in Calm     99% 0 in 56 W/m2
10:44 37.6 °F 37.4 °F 30.3 in Calm     99% 0 in 57 W/m2
10:49 37.6 °F 37.4 °F 30.3 in Calm     99% 0 in 57 W/m2
10:54 37.6 °F 37.4 °F 30.3 in Calm     99% 0 in 62 W/m2
10:59 37.6 °F 37.4 °F 30.3 in Calm     99% 0 in 69 W/m2
11:04 37.6 °F 37.4 °F 30.3 in Calm     99% 0 in 68 W/m2
11:09 37.8 °F 37.6 °F 30.3 in Calm     99% 0 in 70 W/m2
11:14 37.9 °F 37.8 °F 30.3 in Calm     99% 0 in 72 W/m2
11:19 37.9 °F 37.8 °F 30.3 in Calm     99% 0 in 75 W/m2
11:24 37.9 °F 37.8 °F 30.3 in Calm     99% 0 in 82 W/m2
11:29 37.9 °F 37.9 °F 30.3 in Calm     99% 0 in 82 W/m2
11:34 38.1 °F 37.9 °F 30.3 in Calm     99% 0 in 85 W/m2
11:39 38.1 °F 37.9 °F 30.3 in Calm     99% 0 in 89 W/m2
11:44 38.3 °F 38.1 °F 30.3 in Calm     99% 0 in 90 W/m2
11:49 38.5 °F 38.3 °F 30.3 in Calm     99% 0 in 90 W/m2
11:54 38.7 °F 38.5 °F 30.3 in Calm     99% 0 in 92 W/m2
11:59 38.7 °F 38.5 °F 30.3 in Calm     99% 0 in 93 W/m2
12:04 38.7 °F 38.5 °F 30.3 in Calm     99% 0 in 94 W/m2
12:09 38.8 °F 38.7 °F 30.3 in ESE 0.2 mph 4.9 mph 99% 0 in 100 W/m2
12:14 39 °F 38.8 °F 30.3 in Calm   4.9 mph 99% 0 in 103 W/m2
12:19 39 °F 38.8 °F 30.3 in NNE 0.1 mph 2.5 mph 99% 0 in 109 W/m2
12:24 39 °F 38.7 °F 30.3 in Calm     98.8% 0 in 107 W/m2
12:29 39 °F 38.7 °F 30.3 in Calm     98.6% 0 in 93 W/m2
12:34 39 °F 38.7 °F 30.3 in Calm     98.7% 0 in 87 W/m2
12:39 39 °F 38.7 °F 30.3 in Calm     98.3% 0 in 103 W/m2
12:44 39 °F 38.5 °F 30.3 in Calm     97.6% 0 in 105 W/m2
12:49 39.4 °F 38.8 °F 30.3 in Calm     98% 0 in 95 W/m2
12:54 39.6 °F 39.4 °F 30.3 in Calm     98.7% 0 in 102 W/m2
12:59 39.6 °F 39.4 °F 30.3 in SSE 0.1 mph 2.5 mph 99% 0 in 97 W/m2
13:04 39.6 °F 39 °F 30.3 in Calm     98.2% 0 in 104 W/m2
13:09 39.7 °F 39.6 °F 30.3 in Calm     98.9% 0 in 121 W/m2
13:14 40.1 °F 39.4 °F 30.3 in Calm     97.3% 0 in 120 W/m2
13:19 40.1 °F 39.7 °F 30.3 in Calm     98.1% 0 in 122 W/m2
13:24 40.1 °F 39.6 °F 30.3 in ESE 0.2 mph 4.9 mph 98% 0 in 114 W/m2
13:29 40.1 °F 39.6 °F 30.3 in Calm     98% 0 in 113 W/m2
13:34 40.3 °F 39.7 °F 30.3 in East 0.1 mph 2.5 mph 98.3% 0 in 116 W/m2
13:39 40.1 °F 39.7 °F 30.3 in Calm   2.5 mph 98.7% 0 in 125 W/m2
13:44 40.1 °F 39.9 °F 30.3 in Calm     98.7% 0 in 102 W/m2
13:49 40.3 °F 39.7 °F 30.3 in SE 0.2 mph 2.5 mph 97.6% 0 in 99 W/m2
13:54 40.3 °F 39.7 °F 30.3 in SE 0.4 mph 4.9 mph 97.7% 0 in 86 W/m2
13:59 40.3 °F 39.9 °F 30.3 in SE 0.1 mph 4.9 mph 98.3% 0 in 78 W/m2
14:04 40.3 °F 40.1 °F 30.3 in Calm     99% 0 in 63 W/m2
14:09 40.5 °F 40.3 °F 30.3 in Calm     99% 0 in 54 W/m2
14:14 40.5 °F 40.3 °F 30.3 in ESE 0.2 mph 4.9 mph 99% 0 in 50 W/m2
14:19 40.5 °F 40.3 °F 30.3 in Calm   2.5 mph 99% 0 in 62 W/m2
14:24 40.5 °F 40.3 °F 30.3 in SSE 0.4 mph 4.9 mph 99% 0 in 72 W/m2
14:29 40.5 °F 40.3 °F 30.3 in SW 0.1 mph 4.9 mph 99% 0 in 77 W/m2
14:34 40.6 °F 40.5 °F 30.3 in SE 0.4 mph 4.9 mph 99% 0 in 110 W/m2
14:39 40.6 °F 40.5 °F 30.3 in SSE 1.3 mph 7.6 mph 99% 0 in 149 W/m2
14:44 40.8 °F 40.6 °F 30.2 in SSE 3.2 mph 10.1 mph 99% 0 in 152 W/m2
14:49 41 °F 40.6 °F 30.2 in South 3.7 mph 10.1 mph 98.6% 0 in 108 W/m2
14:54 41.4 °F 41.2 °F 30.2 in South 4.7 mph 12.5 mph 99% 0 in 110 W/m2
14:59 41.4 °F 41 °F 30.2 in South 4.5 mph 12.5 mph 98.7% 0 in 108 W/m2
15:04 41.4 °F 40.8 °F 30.2 in South 3.2 mph 12.5 mph 97.9% 0 in 99 W/m2
15:09 41.2 °F 40.5 °F 30.2 in South 4.8 mph 10.1 mph 96.8% 0 in 97 W/m2
15:14 41.4 °F 40.3 °F 30.2 in South 5.3 mph 12.5 mph 96% 0 in 97 W/m2
15:19 41.4 °F 40.5 °F 30.2 in South 4.2 mph 12.5 mph 96.7% 0 in 150 W/m2
15:24 41.4 °F 40.1 °F 30.2 in South 4.8 mph 12.5 mph 94.8% 0 in 173 W/m2
15:29 41.5 °F 39.7 °F 30.2 in South 5.2 mph 12.5 mph 93.3% 0 in 173 W/m2
15:34 42.1 °F 40.8 °F 30.2 in South 5 mph 12.5 mph 94.8% 0 in 172 W/m2
15:39 42.1 °F 40.6 °F 30.2 in SSW 2.9 mph 12.5 mph 94.3% 0 in 175 W/m2
15:44 42.1 °F 40.6 °F 30.2 in South 5 mph 12.5 mph 94.3% 0 in 145 W/m2
15:49 42.1 °F 40.6 °F 30.2 in South 5.4 mph 10.1 mph 94.6% 0 in 149 W/m2
15:54 41.7 °F 40.1 °F 30.2 in South 5.1 mph 12.5 mph 94.3% 0 in 148 W/m2
15:59 41.5 °F 40.6 °F 30.2 in South 4 mph 12.5 mph 96.2% 0 in 57 W/m2
16:04 41.4 °F 40.1 °F 30.2 in South 6.3 mph 12.5 mph 94.9% 0 in 48 W/m2
16:09 41.2 °F 40.1 °F 30.2 in South 4.3 mph 12.5 mph 96.1% 0 in 38 W/m2
16:14 40.5 °F 39.7 °F 30.2 in SSW 5.7 mph 12.5 mph 97.6% 0 in 34 W/m2
16:19 40.3 °F 39.7 °F 30.2 in South 5 mph 12.5 mph 97.8% 0 in 31 W/m2
16:24 40.3 °F 38.8 °F 30.2 in South 5.5 mph 12.5 mph 94.6% 0 in 27 W/m2
16:29 40.3 °F 38.8 °F 30.2 in South 4.7 mph 12.5 mph 94.2% 0 in 27 W/m2
16:34 40.1 °F 38.1 °F 30.2 in South 4.9 mph 12.5 mph 92.8% 0 in 28 W/m2
16:39 40.1 °F 38.5 °F 30.2 in South 5.2 mph 10.1 mph 94.1% 0 in 27 W/m2
16:44 40.1 °F 38.5 °F 30.2 in South 3.1 mph 10.1 mph 93.7% 0 in 27 W/m2
16:49 40.1 °F 39.6 °F 30.2 in South 3.4 mph 7.6 mph 97.8% 0 in 21 W/m2
16:54 39.9 °F 38.7 °F 30.2 in SSW 6.3 mph 12.5 mph 95.3% 0 in 17 W/m2
16:59 39.9 °F 37.9 °F 30.2 in SSW 5 mph 12.5 mph 92.3% 0 in 13 W/m2
17:04 39.7 °F 37.6 °F 30.2 in South 6 mph 12.5 mph 92% 0 in 10 W/m2
17:09 39.7 °F 37.6 °F 30.2 in South 5.1 mph 15 mph 92% 0 in 8 W/m2
17:14 39.7 °F 37.6 °F 30.2 in South 2.9 mph 10.1 mph 92% 0 in 5 W/m2
17:19 39.7 °F 37.6 °F 30.2 in South 4 mph 10.1 mph 92% 0 in 3 W/m2
17:24 39.6 °F 37.8 °F 30.2 in South 2.1 mph 7.6 mph 93% 0 in 0 W/m2
17:29 39.6 °F 38.1 °F 30.2 in South 4.3 mph 10.1 mph 94.2% 0 in 0 W/m2
17:34 39.6 °F 37.6 °F 30.2 in South 4.3 mph 10.1 mph 92.4% 0 in 0 W/m2
17:39 39.6 °F 37.4 °F 30.2 in South 6.1 mph 17.4 mph 92.3% 0 in 0 W/m2
17:44 39.4 °F 37.2 °F 30.2 in South 3.6 mph 12.5 mph 92.2% 0 in 0 W/m2
17:49 39.4 °F 37.6 °F 30.2 in SSE 2.1 mph 10.1 mph 93% 0 in 0 W/m2
17:54 39.6 °F 37.9 °F 30.2 in South 2.9 mph 7.6 mph 93.9% 0 in 0 W/m2
17:59 39.6 °F 37.9 °F 30.2 in South 2.8 mph 7.6 mph 94.3% 0 in 0 W/m2
18:04 39.4 °F 37.8 °F 30.2 in South 2.5 mph 10.1 mph 93.8% 0 in 0 W/m2
18:09 39.4 °F 37.8 °F 30.2 in SSW 2.9 mph 7.6 mph 94% 0 in 0 W/m2
18:14 39.6 °F 37.9 °F 30.2 in Calm   7.6 mph 94% 0 in 0 W/m2
18:19 39.6 °F 37.9 °F 30.2 in South 0.2 mph 4.9 mph 94% 0 in 0 W/m2
18:24 39.6 °F 38.1 °F 30.2 in South 2.9 mph 7.6 mph 94.6% 0 in 0 W/m2
18:29 39.6 °F 38.1 °F 30.2 in South 2 mph 10.1 mph 94.6% 0 in 0 W/m2
18:34 39.4 °F 38.1 °F 30.2 in SE 0.4 mph 4.9 mph 94.9% 0 in 0 W/m2
18:39 39.4 °F 38.3 °F 30.2 in South 0.7 mph 2.5 mph 95.9% 0 in 0 W/m2
18:44 39.2 °F 38.5 °F 30.2 in South 0.7 mph 4.9 mph 97% 0 in 0 W/m2
18:49 39.2 °F 38.1 °F 30.2 in South 2 mph 7.6 mph 95.9% 0 in 0 W/m2
18:54 39.4 °F 38.3 °F 30.2 in South 1.7 mph 7.6 mph 96.2% 0 in 0 W/m2
18:59 39.2 °F 38.5 °F 30.2 in South 0.6 mph 4.9 mph 97.2% 0 in 0 W/m2
19:04 39.2 °F 38.7 °F 30.2 in SSW 0.3 mph 4.9 mph 98% 0 in 0 W/m2
19:09 39.2 °F 38.7 °F 30.2 in SSW 0.2 mph 2.5 mph 98% 0 in 0 W/m2
19:14 39.2 °F 38.7 °F 30.2 in South 1.6 mph 4.9 mph 98% 0 in 0 W/m2
19:19 39.2 °F 38.7 °F 30.2 in South 1.6 mph 7.6 mph 98% 0 in 0 W/m2
19:24 39.2 °F 38.7 °F 30.2 in SSW 1.2 mph 7.6 mph 97.8% 0 in 0 W/m2
19:29 39 °F 38.5 °F 30.2 in South 0.9 mph 7.6 mph 97.9% 0 in 0 W/m2
19:34 39 °F 38.8 °F 30.2 in South 1.7 mph 4.9 mph 99% 0 in 0 W/m2
19:39 39 °F 38.8 °F 30.2 in South 2.2 mph 7.6 mph 99% 0 in 0 W/m2
19:44 39 °F 38.8 °F 30.2 in South 1.9 mph 7.6 mph 99% 0 in 0 W/m2
19:49 39 °F 38.8 °F 30.2 in South 1.2 mph 4.9 mph 99% 0 in 0 W/m2
19:54 39 °F 38.8 °F 30.2 in South 1.9 mph 4.9 mph 99% 0 in 0 W/m2
19:59 39 °F 38.8 °F 30.2 in South 1.1 mph 4.9 mph 99% 0 in 0 W/m2
20:04 39 °F 38.8 °F 30.2 in South 0.6 mph 4.9 mph 99% 0 in 0 W/m2
20:09 39 °F 38.8 °F 30.2 in South 1.1 mph 4.9 mph 99% 0 in 0 W/m2
20:14 38.8 °F 38.7 °F 30.2 in South 0.8 mph 4.9 mph 99% 0 in 0 W/m2
20:19 38.8 °F 38.7 °F 30.2 in South 0.8 mph 4.9 mph 99% 0 in 0 W/m2
20:24 38.8 °F 38.7 °F 30.2 in South 1.1 mph 4.9 mph 99% 0 in 0 W/m2
20:29 38.8 °F 38.7 °F 30.2 in South 2.5 mph 7.6 mph 99% 0 in 0 W/m2
20:34 38.8 °F 38.5 °F 30.2 in South 2.5 mph 7.6 mph 98.7% 0 in 0 W/m2
20:39 38.8 °F 38.3 °F 30.2 in South 1.9 mph 7.6 mph 98% 0 in 0 W/m2
20:44 38.8 °F 38.1 °F 30.2 in SSW 1.8 mph 4.9 mph 97.3% 0 in 0 W/m2
20:49 38.8 °F 38.1 °F 30.2 in SSW 1.7 mph 4.9 mph 97% 0 in 0 W/m2
20:54 38.8 °F 38.1 °F 30.2 in South 2.5 mph 4.9 mph 97% 0 in 0 W/m2
20:59 38.8 °F 38.1 °F 30.2 in South 0.9 mph 4.9 mph 97% 0 in 0 W/m2
21:04 38.8 °F 38.1 °F 30.2 in South 1.4 mph 4.9 mph 97% 0 in 0 W/m2
21:09 38.8 °F 38.1 °F 30.2 in SSE 0.7 mph 4.9 mph 97% 0 in 0 W/m2
21:14 38.8 °F 38.1 °F 30.2 in SSE 0.5 mph 4.9 mph 97% 0 in 0 W/m2
21:19 38.8 °F 38.1 °F 30.2 in South 0.9 mph 4.9 mph 97% 0 in 0 W/m2
21:24 38.8 °F 38.1 °F 30.2 in SSW 1.5 mph 4.9 mph 97% 0 in 0 W/m2
21:29 38.8 °F 38.1 °F 30.2 in SSE 0.3 mph 4.9 mph 97.4% 0 in 0 W/m2
21:34 38.8 °F 38.3 °F 30.2 in South 1.4 mph 4.9 mph 98% 0 in 0 W/m2
21:39 38.8 °F 38.5 °F 30.2 in South 2.1 mph 7.6 mph 98.6% 0 in 0 W/m2
21:44 38.8 °F 38.7 °F 30.2 in South 1 mph 7.6 mph 99% 0 in 0 W/m2
21:49 38.8 °F 38.7 °F 30.2 in South 2 mph 4.9 mph 99% 0 in 0 W/m2
21:54 38.7 °F 38.5 °F 30.2 in SSW 1.5 mph 4.9 mph 99% 0 in 0 W/m2
21:59 38.5 °F 38.3 °F 30.2 in South 2.5 mph 4.9 mph 99% 0 in 0 W/m2
22:04 38.3 °F 38.1 °F 30.2 in South 2.5 mph 10.1 mph 99% 0 in 0 W/m2
22:09 38.3 °F 38.1 °F 30.2 in South 2.3 mph 7.6 mph 99% 0 in 0 W/m2
22:14 38.1 °F 37.9 °F 30.2 in South 2.5 mph 4.9 mph 99% 0 in 0 W/m2
22:19 38.1 °F 37.9 °F 30.2 in SSW 2.2 mph 7.6 mph 99% 0 in 0 W/m2
22:24 37.9 °F 37.8 °F 30.2 in South 3.1 mph 7.6 mph 99% 0 in 0 W/m2
22:29 37.9 °F 37.8 °F 30.2 in South 1.9 mph 4.9 mph 99% 0 in 0 W/m2
22:34 37.9 °F 37.8 °F 30.2 in South 3 mph 7.6 mph 99% 0 in 0 W/m2
22:39 37.9 °F 37.8 °F 30.2 in South 3.1 mph 10.1 mph 99% 0 in 0 W/m2
22:44 37.9 °F 37.8 °F 30.2 in SSW 0.6 mph 4.9 mph 99% 0 in 0 W/m2
22:49 37.9 °F 37.8 °F 30.2 in SSW 0.4 mph 4.9 mph 99% 0 in 0 W/m2
22:54 37.8 °F 37.8 °F 30.2 in South 1 mph 4.9 mph 99% 0 in 0 W/m2
22:59 37.8 °F 37 °F 30.2 in South 1.1 mph 4.9 mph 97.4% 0 in 0 W/m2
23:04 37.8 °F 37.2 °F 30.2 in SSE 0.6 mph 4.9 mph 97.7% 0 in 0 W/m2
23:09 37.8 °F 37.4 °F 30.2 in SSW 0.5 mph 4.9 mph 98.3% 0 in 0 W/m2
23:14 37.6 °F 37 °F 30.2 in South 0.2 mph 4.9 mph 98% 0 in 0 W/m2
23:19 37.6 °F 37 °F 30.2 in South 0.1 mph 2.5 mph 98% 0 in 0 W/m2
23:24 37.6 °F 36.9 °F 30.2 in South 0.1 mph 2.5 mph 97.4% 0 in 0 W/m2
23:29 37.6 °F 36.9 °F 30.2 in Calm   2.5 mph 97% 0 in 0 W/m2
23:34 37.6 °F 36.9 °F 30.2 in Calm     97% 0 in 0 W/m2
23:39 37.6 °F 36.7 °F 30.2 in Calm     96.4% 0 in 0 W/m2
23:44 37.6 °F 36.5 °F 30.2 in Calm   2.5 mph 95.9% 0 in 0 W/m2
23:49 37.6 °F 36.3 °F 30.2 in Calm   2.5 mph 95.3% 0 in 0 W/m2
23:54 37.6 °F 36.3 °F 30.2 in South 1.1 mph 4.9 mph 95% 0 in 0 W/m2
23:59 37.4 °F 36.1 °F 30.2 in South 1 mph 4.9 mph 95.2% 0 in 0 W/m2
Juneau County Weather
Compliments of Weather Underground - 2 mb